createdAt,value
2018-11-25T01:25:03.412Z,49.60
2018-11-25T01:42:27.596Z,54.08
2018-11-25T01:48:07.637Z,57.97
2018-11-25T01:59:14.378Z,50.40
2018-11-25T02:06:05.505Z,67.00
2018-11-25T02:19:20.225Z,56.10
2018-11-25T02:24:26.212Z,54.70
2018-11-25T02:29:35.015Z,61.23
2018-11-25T02:34:38.344Z,63.67
2018-11-25T02:39:41.351Z,67.40
2018-11-25T02:44:44.395Z,78.40
2018-11-25T02:49:47.434Z,46.37
2018-11-25T02:54:50.463Z,56.30
2018-11-25T02:59:53.516Z,52.70
2018-11-25T03:04:56.559Z,53.67
2018-11-25T03:09:59.593Z,54.20
2018-11-25T03:15:02.721Z,44.00
2018-11-25T03:20:09.429Z,55.73
2018-11-25T03:25:16.268Z,39.07
2018-11-25T03:30:21.026Z,47.73
2018-11-25T03:35:24.064Z,45.20
2018-11-25T03:40:27.111Z,33.93
2018-11-25T03:45:30.247Z,43.50
2018-11-25T03:50:34.424Z,42.80
2018-11-25T03:55:37.737Z,39.20
2018-11-25T04:00:40.890Z,36.87
2018-11-25T04:05:44.246Z,36.13
2018-11-25T04:10:47.505Z,30.63
2018-11-25T04:15:50.744Z,24.83
2018-11-25T04:20:53.855Z,32.63
2018-11-25T04:25:57.160Z,26.63
2018-11-25T04:31:00.342Z,30.20
2018-11-25T04:36:03.476Z,45.37
2018-11-25T04:41:06.547Z,29.20
2018-11-25T04:46:10.104Z,27.77
2018-11-25T04:51:13.148Z,25.20
2018-11-25T04:56:16.260Z,23.70
2018-11-25T05:01:19.540Z,31.70
2018-11-25T05:06:22.679Z,34.50
2018-11-25T05:11:25.806Z,23.03
2018-11-25T05:16:29.486Z,29.87
2018-11-25T05:21:32.639Z,26.43
2018-11-25T05:26:35.837Z,25.03
2018-11-25T05:31:39.158Z,21.80
2018-11-25T05:36:42.388Z,17.50
2018-11-25T05:41:45.534Z,24.07
2018-11-25T05:46:48.740Z,22.27
2018-11-25T05:51:52.440Z,18.50
2018-11-25T05:56:56.263Z,21.37
2018-11-25T06:01:59.494Z,21.03
2018-11-25T06:07:02.630Z,27.50
2018-11-25T06:12:07.358Z,22.80
2018-11-25T06:17:10.502Z,17.57
2018-11-25T06:22:13.542Z,25.73
2018-11-25T06:27:16.724Z,25.10
2018-11-25T06:32:20.128Z,27.73
2018-11-25T06:37:25.721Z,21.10
2018-11-25T06:42:28.923Z,30.37
2018-11-25T06:47:32.017Z,28.63
2018-11-25T06:52:35.107Z,21.97
2018-11-25T06:57:38.244Z,21.17
2018-11-25T07:02:41.611Z,19.23
2018-11-25T07:07:44.692Z,17.83
2018-11-25T07:12:49.399Z,22.87
2018-11-25T07:17:52.528Z,19.47
2018-11-25T07:22:55.852Z,19.80
2018-11-25T07:27:58.905Z,19.57
2018-11-25T07:33:01.945Z,26.93
2018-11-25T07:38:05.605Z,23.97
2018-11-25T07:43:08.957Z,21.63
2018-11-25T07:48:12.226Z,24.40
2018-11-25T07:53:15.442Z,23.33
2018-11-25T07:58:18.505Z,23.90
2018-11-25T08:03:21.608Z,24.73
2018-11-25T08:08:24.744Z,23.97
2018-11-25T08:13:27.883Z,26.63
2018-11-25T08:18:31.094Z,27.43
2018-11-25T08:23:34.195Z,26.83
2018-11-25T08:28:37.309Z,27.43
2018-11-25T08:33:40.442Z,21.57
2018-11-25T08:38:43.485Z,28.30
2018-11-25T08:43:46.607Z,25.70
2018-11-25T08:48:49.654Z,25.00
2018-11-25T08:53:52.729Z,24.93
2018-11-25T08:58:55.826Z,28.93
2018-11-25T09:03:58.960Z,31.70
2018-11-25T09:09:02.108Z,29.33
2018-11-25T09:14:05.292Z,31.63
2018-11-25T09:19:08.377Z,28.03
2018-11-25T09:24:11.488Z,31.07
2018-11-25T09:29:14.603Z,44.50
2018-11-25T09:34:17.685Z,35.00
2018-11-25T09:39:20.811Z,43.90
2018-11-25T09:44:23.903Z,35.50
2018-11-25T09:49:26.983Z,42.37
2018-11-25T09:54:30.084Z,37.50
2018-11-25T09:59:33.181Z,39.97
2018-11-25T10:04:36.394Z,51.10
2018-11-25T10:09:39.527Z,38.17
2018-11-25T10:14:42.680Z,33.90
2018-11-25T10:19:45.768Z,30.00
2018-11-25T10:24:48.870Z,33.43
2018-11-25T10:29:51.975Z,38.53
2018-11-25T10:34:54.979Z,40.40
2018-11-25T10:39:58.035Z,36.73
2018-11-25T10:45:01.098Z,34.03
2018-11-25T10:50:04.428Z,35.17
2018-11-25T10:55:09.926Z,60.77
2018-11-25T11:00:29.388Z,35.93
2018-11-25T11:05:38.092Z,42.77
2018-11-25T11:10:41.172Z,50.83
2018-11-25T11:15:44.230Z,40.10
2018-11-25T11:20:47.329Z,36.73
2018-11-25T11:25:50.369Z,28.40
2018-11-25T11:30:53.435Z,36.63
2018-11-25T11:35:56.489Z,38.70
2018-11-25T11:40:59.589Z,39.20
2018-11-25T11:46:02.700Z,42.73
2018-11-25T11:51:05.828Z,35.57
2018-11-25T11:56:08.908Z,37.63
2018-11-25T12:01:12.566Z,39.20
2018-11-25T12:06:15.637Z,27.63
2018-11-25T12:11:18.927Z,33.33
2018-11-25T12:16:21.942Z,44.47
2018-11-25T12:21:25.316Z,34.83
2018-11-25T12:26:28.451Z,35.83
2018-11-25T12:31:31.777Z,32.90
2018-11-25T12:36:34.823Z,33.03
2018-11-25T12:41:38.064Z,33.67
2018-11-25T12:46:41.305Z,39.97
2018-11-25T12:51:45.158Z,32.10
2018-11-25T12:56:51.820Z,33.27
2018-11-25T13:01:51.882Z,43.70
2018-11-25T13:06:54.956Z,38.73
2018-11-25T13:11:58.141Z,45.50
2018-11-25T13:17:01.249Z,43.20
2018-11-25T13:22:04.584Z,43.37
2018-11-25T13:27:08.446Z,48.77
2018-11-25T13:32:12.265Z,51.43
2018-11-25T13:37:15.383Z,42.80
2018-11-25T13:42:18.484Z,51.43
2018-11-25T13:47:21.609Z,46.37
2018-11-25T13:52:24.775Z,54.63
2018-11-25T13:57:27.870Z,60.43
2018-11-25T14:02:30.968Z,60.87
2018-11-25T14:07:34.043Z,52.80
2018-11-25T14:12:37.207Z,57.43
2018-11-25T14:17:40.368Z,64.67
2018-11-25T14:22:43.479Z,58.60
2018-11-25T14:27:49.036Z,44.20
2018-11-25T14:32:52.224Z,67.07
2018-11-25T14:37:55.273Z,69.53
2018-11-25T14:42:58.383Z,62.13
2018-11-25T14:48:01.437Z,70.93
2018-11-25T14:53:04.918Z,65.60
2018-11-25T14:58:07.993Z,60.17
2018-11-25T15:03:11.026Z,73.07
2018-11-25T15:08:19.560Z,78.53
2018-11-25T15:13:22.621Z,78.70
2018-11-25T15:18:25.663Z,71.87
2018-11-25T15:23:28.688Z,66.83
2018-11-25T15:28:31.716Z,72.40
2018-11-25T15:33:35.406Z,67.00
2018-11-25T15:38:38.455Z,76.30
2018-11-25T15:43:41.527Z,96.03
2018-11-25T15:48:44.575Z,79.63
2018-11-25T15:53:47.639Z,102.50
2018-11-25T15:58:50.716Z,79.93
2018-11-25T16:03:53.792Z,74.73
2018-11-25T16:08:56.886Z,66.73
2018-11-25T16:13:59.940Z,106.83
2018-11-25T16:19:03.213Z,89.27
2018-11-25T16:24:07.779Z,67.70
2018-11-25T16:29:13.937Z,85.53
2018-11-25T16:34:17.021Z,73.57
2018-11-25T16:39:20.143Z,58.50
2018-11-25T16:44:23.272Z,64.53
2018-11-25T16:49:26.328Z,87.93
2018-11-25T16:54:29.407Z,79.83
2018-11-25T16:59:32.479Z,80.73
2018-11-25T17:04:35.550Z,65.60
2018-11-25T17:09:38.662Z,70.23
2018-11-25T17:14:41.890Z,65.17
2018-11-25T17:19:44.968Z,80.73
2018-11-25T17:24:48.235Z,61.10
2018-11-25T17:29:51.331Z,76.80
2018-11-25T17:34:54.393Z,64.57
2018-11-25T17:39:57.524Z,80.37
2018-11-25T17:45:00.660Z,101.00
2018-11-25T17:50:07.872Z,88.93
2018-11-25T17:55:12.160Z,80.80
2018-11-25T18:00:38.548Z,87.60
2018-11-25T18:05:41.681Z,82.93
2018-11-25T18:10:44.748Z,122.53
2018-11-25T18:15:48.368Z,105.70
2018-11-25T18:20:56.517Z,86.73
2018-11-25T18:25:59.748Z,80.20
2018-11-25T18:31:02.912Z,117.07
2018-11-25T18:36:08.665Z,89.37
2018-11-25T18:41:11.790Z,81.23
2018-11-25T18:46:14.858Z,82.67
2018-11-25T18:51:18.160Z,90.73
2018-11-25T18:56:21.226Z,76.00
2018-11-25T19:02:10.448Z,96.73
2018-11-25T19:07:13.671Z,88.57
2018-11-25T19:12:16.752Z,88.27
2018-11-25T19:17:19.812Z,82.67
2018-11-25T19:22:23.141Z,74.13
2018-11-25T19:27:26.291Z,86.10
2018-11-25T19:32:29.388Z,90.33
2018-11-25T19:37:32.685Z,98.50
2018-11-25T19:42:36.126Z,90.33
2018-11-25T19:47:39.246Z,89.20
2018-11-25T19:52:42.317Z,104.47
2018-11-25T19:57:45.406Z,96.87
2018-11-25T20:02:49.399Z,101.10
2018-11-25T20:07:52.132Z,93.93
2018-11-25T20:12:57.657Z,97.73
2018-11-25T20:18:01.309Z,122.03
2018-11-25T20:23:05.848Z,114.47
2018-11-25T20:28:08.972Z,113.97
2018-11-25T20:33:17.899Z,105.03
2018-11-25T20:38:26.521Z,110.73
2018-11-25T20:43:29.619Z,124.53
2018-11-25T20:48:32.684Z,118.10
2018-11-25T20:53:41.481Z,100.27
2018-11-25T20:58:44.572Z,113.60
2018-11-25T21:03:47.672Z,100.20
2018-11-25T21:08:50.724Z,112.30
2018-11-25T21:13:53.811Z,123.17
2018-11-25T21:18:56.868Z,98.37
2018-11-25T21:23:59.891Z,107.03
2018-11-25T21:29:03.048Z,107.93
2018-11-25T21:34:06.105Z,97.53
2018-11-25T21:39:09.857Z,112.00
2018-11-25T21:44:12.935Z,108.60
2018-11-25T21:49:16.006Z,110.70
2018-11-25T21:54:19.074Z,102.37
2018-11-25T21:59:22.146Z,103.43
2018-11-25T22:04:25.312Z,119.77
2018-11-25T22:09:28.348Z,122.27
2018-11-25T22:14:32.185Z,108.90
2018-11-25T22:19:35.189Z,109.67
2018-11-25T22:24:38.361Z,133.87
2018-11-25T22:29:41.502Z,107.53
2018-11-25T22:34:44.613Z,103.67
2018-11-25T22:39:47.727Z,106.13
2018-11-25T22:44:50.819Z,87.07
2018-11-25T22:49:53.920Z,82.73
2018-11-25T22:54:56.996Z,96.97
2018-11-25T23:00:00.041Z,114.70
2018-11-25T23:05:20.147Z,86.93
2018-11-25T23:10:23.195Z,86.27
2018-11-25T23:15:26.348Z,95.87
2018-11-25T23:20:29.424Z,89.73
2018-11-25T23:25:32.479Z,78.73
2018-11-25T23:30:35.534Z,84.47
2018-11-25T23:35:38.593Z,88.27
2018-11-25T23:40:41.655Z,85.53
2018-11-25T23:45:44.743Z,111.20
2018-11-25T23:50:47.874Z,84.17
2018-11-25T23:55:51.169Z,91.70
